Philadelphia, Pennsylvania
Traffic Map
Current Weather Conditions
Philadelphia, Pennsylvania
Few Clouds
Few Clouds
19°
Feels Like: 19°
Wind Chill: 19° Ceiling: Unl
Heat Index: 19° Visibility: 10mi
Dew Point: Wind: 16mph
Humidity: 52% Direction: 290° (WNW)
Pressure: 29.93in Gusts: 24mph
Raw Report DataKPHL 221354Z 29014G21KT 10SM FEW040 FEW220 19/09 A2993 RMK AO2 SLP134 T01940094
Traffic Incident Summary
Active as of:
Severity:
Category:
InformationThere was an issue retrieving the traffic information for this location. Please try a different location or try again shortly.
Advertisements
Track Severe Weather on mobile